createdAt,value
2022-09-18T00:00:19.923Z,11.13
2022-09-18T00:03:22.853Z,11.15
2022-09-18T00:06:29.913Z,11.16
2022-09-18T00:09:32.766Z,11.16
2022-09-18T00:12:35.845Z,11.18
2022-09-18T00:15:38.893Z,11.18
2022-09-18T00:18:42.202Z,11.19
2022-09-18T00:21:48.207Z,11.17
2022-09-18T00:24:51.206Z,11.19
2022-09-18T00:27:53.877Z,11.17
2022-09-18T00:30:57.064Z,11.18
2022-09-18T00:34:02.626Z,11.19
2022-09-18T00:37:06.941Z,11.19
2022-09-18T00:40:11.350Z,11.18
2022-09-18T00:43:21.975Z,11.16
2022-09-18T00:46:30.971Z,11.16
2022-09-18T00:49:34.593Z,11.20
2022-09-18T00:52:49.579Z,11.18
2022-09-18T00:55:52.694Z,11.16
2022-09-18T00:58:55.460Z,11.20
2022-09-18T01:02:00.196Z,11.23
2022-09-18T01:05:03.266Z,11.26
2022-09-18T01:08:24.160Z,11.25
2022-09-18T01:11:37.324Z,11.27
2022-09-18T01:14:45.237Z,11.27
2022-09-18T01:17:55.611Z,11.36
2022-09-18T01:21:08.567Z,11.35
2022-09-18T01:24:40.307Z,11.34
2022-09-18T01:27:59.221Z,11.36
2022-09-18T01:31:08.225Z,11.37
2022-09-18T01:34:16.515Z,11.42
2022-09-18T01:37:29.262Z,11.42
2022-09-18T01:40:36.407Z,11.42
2022-09-18T01:43:42.254Z,11.44
2022-09-18T01:46:46.784Z,11.45
2022-09-18T01:49:53.746Z,11.43
2022-09-18T01:53:04.007Z,11.45
2022-09-18T01:56:12.437Z,11.45
2022-09-18T01:59:22.664Z,11.45
2022-09-18T02:02:32.907Z,11.48
2022-09-18T02:05:41.172Z,11.48
2022-09-18T02:08:48.699Z,11.52
2022-09-18T02:11:56.525Z,11.51
2022-09-18T02:15:06.394Z,11.50
2022-09-18T02:18:13.239Z,11.53
2022-09-18T02:21:19.688Z,11.55
2022-09-18T02:24:26.056Z,11.54
2022-09-18T02:27:31.013Z,11.53
2022-09-18T02:30:35.531Z,11.52
2022-09-18T02:33:38.805Z,11.55
2022-09-18T02:36:58.134Z,11.55
2022-09-18T02:40:18.669Z,11.53
2022-09-18T02:43:36.796Z,11.55
2022-09-18T02:46:51.399Z,11.48
2022-09-18T02:50:02.822Z,11.50
2022-09-18T02:53:11.887Z,11.32
2022-09-18T02:56:22.982Z,11.45
2022-09-18T02:59:29.954Z,11.43
2022-09-18T03:02:34.605Z,11.44
2022-09-18T03:05:37.319Z,11.42
2022-09-18T03:08:40.518Z,11.43
2022-09-18T03:11:43.364Z,11.45
2022-09-18T03:14:46.076Z,11.47
2022-09-18T03:17:50.430Z,11.50
2022-09-18T03:20:53.731Z,11.48
2022-09-18T03:23:56.822Z,11.48
2022-09-18T03:26:59.989Z,11.45
2022-09-18T03:30:02.800Z,11.46
2022-09-18T03:33:06.897Z,11.47
2022-09-18T03:36:10.064Z,11.52
2022-09-18T03:39:16.056Z,11.51
2022-09-18T03:42:19.049Z,11.47
2022-09-18T03:45:22.115Z,11.45
2022-09-18T03:48:26.162Z,11.44
2022-09-18T03:51:29.309Z,11.43
2022-09-18T03:54:33.780Z,11.41
2022-09-18T03:57:37.542Z,11.43
2022-09-18T04:00:40.719Z,11.44
2022-09-18T04:03:45.002Z,11.43
2022-09-18T04:06:47.676Z,11.45
2022-09-18T04:09:50.406Z,11.42
2022-09-18T04:12:53.125Z,11.46
2022-09-18T04:15:56.213Z,11.45
2022-09-18T04:19:00.429Z,11.46
2022-09-18T04:22:03.677Z,11.48
2022-09-18T04:25:08.060Z,11.52
2022-09-18T04:28:11.909Z,11.46
2022-09-18T04:31:15.077Z,11.53
2022-09-18T04:34:19.112Z,11.54
2022-09-18T04:37:21.824Z,11.53
2022-09-18T04:40:24.977Z,11.53
2022-09-18T04:43:28.966Z,11.52
2022-09-18T04:46:32.102Z,11.49
2022-09-18T04:49:36.162Z,11.49
2022-09-18T04:52:39.311Z,11.45
2022-09-18T04:55:44.530Z,11.49
2022-09-18T04:58:47.686Z,11.51
2022-09-18T05:01:50.821Z,11.48
2022-09-18T05:04:54.943Z,11.50
2022-09-18T05:07:59.309Z,11.50
2022-09-18T05:11:04.852Z,11.45
2022-09-18T05:14:07.915Z,11.48
2022-09-18T05:17:11.106Z,11.27
2022-09-18T05:20:15.947Z,11.21
2022-09-18T05:23:18.658Z,11.18
2022-09-18T05:26:21.333Z,11.20
2022-09-18T05:29:24.403Z,11.19
2022-09-18T05:32:27.076Z,11.22
2022-09-18T05:35:32.470Z,11.23
2022-09-18T05:38:35.201Z,11.23
2022-09-18T05:41:41.350Z,11.15
2022-09-18T05:44:46.384Z,11.26
2022-09-18T05:47:57.103Z,11.29
2022-09-18T05:51:01.553Z,11.38
2022-09-18T05:54:05.417Z,11.34
2022-09-18T05:57:08.490Z,11.36
2022-09-18T06:00:12.923Z,11.24
2022-09-18T06:03:17.354Z,11.41
2022-09-18T06:06:22.164Z,11.45
2022-09-18T06:09:24.913Z,11.49
2022-09-18T06:12:28.118Z,11.50
2022-09-18T06:15:31.558Z,11.54
2022-09-18T06:18:34.324Z,11.64
2022-09-18T06:21:38.909Z,11.67
2022-09-18T06:24:41.750Z,11.72
2022-09-18T06:27:44.452Z,11.81
2022-09-18T06:30:47.228Z,11.90
2022-09-18T06:33:50.551Z,11.98
2022-09-18T06:36:54.630Z,11.99
2022-09-18T06:39:57.448Z,12.03
2022-09-18T06:43:02.126Z,12.08
2022-09-18T06:46:06.012Z,12.09
2022-09-18T06:49:08.813Z,12.14
2022-09-18T06:52:13.004Z,12.16
2022-09-18T06:55:16.030Z,12.22
2022-09-18T06:58:19.753Z,12.26
2022-09-18T07:01:22.612Z,12.28
2022-09-18T07:04:25.897Z,12.34
2022-09-18T07:07:30.322Z,12.34
2022-09-18T07:10:33.285Z,12.42
2022-09-18T07:13:37.572Z,12.39
2022-09-18T07:16:40.480Z,12.38
2022-09-18T07:19:43.287Z,12.44
2022-09-18T07:22:53.309Z,12.46
2022-09-18T07:25:56.011Z,12.53
2022-09-18T07:28:59.133Z,12.59
2022-09-18T07:32:02.714Z,12.68
2022-09-18T07:35:06.307Z,12.66
2022-09-18T07:38:11.244Z,12.70
2022-09-18T07:41:13.977Z,12.70
2022-09-18T07:44:16.857Z,12.76
2022-09-18T07:47:20.273Z,12.82
2022-09-18T07:50:23.577Z,12.90
2022-09-18T07:53:29.785Z,12.91
2022-09-18T07:56:32.626Z,13.00
2022-09-18T07:59:35.322Z,13.01
2022-09-18T08:02:38.197Z,13.05
2022-09-18T08:05:42.242Z,13.11
2022-09-18T08:08:46.889Z,13.13
2022-09-18T08:11:52.574Z,13.22
2022-09-18T08:14:55.489Z,13.36
2022-09-18T08:17:58.563Z,13.46
2022-09-18T08:21:01.565Z,13.47
2022-09-18T08:24:06.084Z,13.52
2022-09-18T08:27:09.267Z,13.51
2022-09-18T08:30:14.698Z,13.42
2022-09-18T08:33:17.425Z,13.49
2022-09-18T08:36:20.117Z,13.43
2022-09-18T08:39:24.724Z,13.41
2022-09-18T08:42:38.270Z,13.38
2022-09-18T08:45:52.735Z,13.35
2022-09-18T08:49:07.998Z,13.47
2022-09-18T08:52:14.915Z,13.66
2022-09-18T08:55:27.379Z,13.83
2022-09-18T08:58:34.940Z,13.99
2022-09-18T09:01:48.264Z,14.07
2022-09-18T09:04:51.241Z,14.08
2022-09-18T09:08:09.582Z,14.13
2022-09-18T09:11:20.949Z,14.23
2022-09-18T09:14:56.105Z,14.33
2022-09-18T09:18:10.075Z,14.40
2022-09-18T09:21:21.853Z,14.38
2022-09-18T09:24:32.912Z,14.36
2022-09-18T09:27:41.398Z,14.39
2022-09-18T09:30:47.598Z,14.34
2022-09-18T09:33:56.261Z,14.34
2022-09-18T09:37:02.232Z,14.36
2022-09-18T09:40:13.534Z,14.38
2022-09-18T09:43:26.530Z,14.51
2022-09-18T09:46:44.823Z,14.68
2022-09-18T09:49:58.255Z,14.79
2022-09-18T09:53:05.073Z,14.85
2022-09-18T09:56:15.154Z,14.93
2022-09-18T09:59:26.978Z,14.80
2022-09-18T10:02:41.609Z,14.68
2022-09-18T10:05:53.631Z,14.59
2022-09-18T10:09:04.101Z,14.59
2022-09-18T10:12:19.487Z,14.65
2022-09-18T10:15:29.655Z,14.80
2022-09-18T10:18:40.091Z,14.89
2022-09-18T10:21:45.473Z,14.88
2022-09-18T10:24:55.469Z,14.91
2022-09-18T10:27:59.086Z,14.91
2022-09-18T10:31:05.463Z,14.89
2022-09-18T10:34:32.639Z,14.87
2022-09-18T10:37:40.326Z,14.84
2022-09-18T10:40:43.630Z,14.84
2022-09-18T10:43:55.827Z,14.92
2022-09-18T10:47:06.643Z,14.96
2022-09-18T10:50:19.567Z,14.85
2022-09-18T10:53:29.712Z,14.97
2022-09-18T10:56:33.398Z,15.11
2022-09-18T10:59:36.922Z,15.37
2022-09-18T11:02:47.884Z,15.65
2022-09-18T11:05:57.347Z,15.86
2022-09-18T11:09:03.829Z,16.08
2022-09-18T11:12:16.094Z,16.20
2022-09-18T11:15:21.657Z,16.27
2022-09-18T11:18:27.294Z,16.38
2022-09-18T11:21:30.176Z,16.50
2022-09-18T11:24:34.811Z,16.64
2022-09-18T11:27:46.898Z,16.53
2022-09-18T11:30:58.148Z,16.52
2022-09-18T11:34:06.452Z,16.41
2022-09-18T11:37:13.041Z,16.38
2022-09-18T11:40:22.497Z,16.34
2022-09-18T11:43:28.513Z,16.31
2022-09-18T11:46:44.511Z,16.34
2022-09-18T11:49:52.224Z,16.35
2022-09-18T11:52:59.618Z,16.36
2022-09-18T11:56:07.286Z,16.25
2022-09-18T11:59:16.617Z,16.11
2022-09-18T12:02:27.970Z,16.13
2022-09-18T12:05:37.731Z,16.08
2022-09-18T12:08:50.992Z,16.03
2022-09-18T12:12:02.800Z,16.08
2022-09-18T12:15:14.030Z,16.13
2022-09-18T12:18:21.352Z,16.08
2022-09-18T12:21:39.263Z,16.04
2022-09-18T12:24:42.507Z,16.01
2022-09-18T12:27:50.545Z,16.01
2022-09-18T12:31:02.200Z,15.97
2022-09-18T12:34:12.917Z,15.93
2022-09-18T12:37:31.791Z,15.87
2022-09-18T12:40:58.580Z,15.65
2022-09-18T12:44:29.477Z,15.49
2022-09-18T12:47:47.041Z,15.37
2022-09-18T12:51:04.548Z,15.34
2022-09-18T12:54:31.041Z,15.29
2022-09-18T12:57:47.467Z,15.27
2022-09-18T13:00:53.205Z,15.36
2022-09-18T13:04:06.401Z,15.43
2022-09-18T13:07:17.164Z,15.45
2022-09-18T13:10:24.422Z,15.46
2022-09-18T13:13:38.034Z,15.43
2022-09-18T13:16:50.171Z,15.37
2022-09-18T13:19:59.064Z,15.23
2022-09-18T13:23:03.184Z,15.19
2022-09-18T13:26:11.933Z,15.08
2022-09-18T13:29:52.593Z,14.99
2022-09-18T13:32:57.044Z,14.97
2022-09-18T13:36:00.012Z,14.95
2022-09-18T13:39:06.370Z,14.94
2022-09-18T13:42:10.593Z,14.92
2022-09-18T13:45:21.035Z,14.91
2022-09-18T13:48:28.159Z,14.85
2022-09-18T13:51:36.172Z,14.85
2022-09-18T13:54:39.541Z,14.85
2022-09-18T13:57:45.223Z,14.89
2022-09-18T14:00:48.066Z,14.95
2022-09-18T14:03:51.172Z,15.02
2022-09-18T14:06:54.067Z,15.02
2022-09-18T14:10:03.938Z,15.07
2022-09-18T14:13:25.440Z,15.14
2022-09-18T14:16:33.148Z,15.15
2022-09-18T14:19:37.889Z,15.13
2022-09-18T14:22:41.264Z,15.08
2022-09-18T14:25:46.057Z,15.01
2022-09-18T14:28:50.470Z,14.89
2022-09-18T14:31:55.377Z,14.83
2022-09-18T14:35:25.893Z,14.77
2022-09-18T14:38:34.591Z,14.67
2022-09-18T14:41:38.241Z,14.61
2022-09-18T14:44:48.653Z,14.56
2022-09-18T14:47:52.209Z,14.51
2022-09-18T14:51:03.870Z,14.43
2022-09-18T14:54:20.054Z,14.40
2022-09-18T14:57:27.023Z,14.35
2022-09-18T15:00:33.304Z,14.26
2022-09-18T15:03:39.813Z,14.21
2022-09-18T15:06:46.740Z,14.18
2022-09-18T15:09:52.924Z,14.17
2022-09-18T15:12:57.842Z,14.16
2022-09-18T15:16:04.622Z,14.13
2022-09-18T15:19:18.237Z,14.10
2022-09-18T15:22:22.935Z,14.05
2022-09-18T15:25:31.756Z,14.04
2022-09-18T15:28:37.425Z,14.03
2022-09-18T15:31:42.322Z,14.02
2022-09-18T15:34:49.832Z,13.98
2022-09-18T15:37:55.040Z,13.97
2022-09-18T15:40:57.826Z,13.98
2022-09-18T15:44:01.835Z,13.97
2022-09-18T15:47:35.012Z,13.94
2022-09-18T15:50:43.563Z,13.87
2022-09-18T15:54:05.270Z,13.91
2022-09-18T15:57:15.907Z,13.87
2022-09-18T16:00:19.365Z,13.87
2022-09-18T16:03:24.427Z,13.86
2022-09-18T16:06:32.275Z,13.82
2022-09-18T16:09:42.325Z,13.80
2022-09-18T16:12:45.546Z,13.80
2022-09-18T16:15:50.323Z,13.79
2022-09-18T16:18:57.127Z,13.78
2022-09-18T16:22:10.741Z,13.73
2022-09-18T16:25:20.273Z,13.71
2022-09-18T16:28:26.109Z,13.68
2022-09-18T16:31:30.926Z,13.64
2022-09-18T16:34:35.018Z,13.62
2022-09-18T16:37:41.258Z,13.58
2022-09-18T16:40:44.471Z,13.56
2022-09-18T16:43:47.245Z,13.53
2022-09-18T16:46:53.180Z,13.50
2022-09-18T16:49:57.304Z,13.45
2022-09-18T16:53:01.584Z,13.43
2022-09-18T16:56:08.138Z,13.37
2022-09-18T16:59:11.469Z,13.36
2022-09-18T17:02:18.113Z,13.32
2022-09-18T17:05:22.326Z,13.26
2022-09-18T17:08:25.669Z,13.22
2022-09-18T17:11:28.524Z,13.19
2022-09-18T17:14:31.609Z,13.18
2022-09-18T17:17:34.455Z,13.14
2022-09-18T17:20:38.549Z,13.13
2022-09-18T17:23:41.317Z,13.09
2022-09-18T17:26:44.249Z,13.02
2022-09-18T17:29:46.968Z,12.96
2022-09-18T17:32:50.252Z,12.93
2022-09-18T17:35:54.306Z,12.89
2022-09-18T17:39:01.772Z,12.81
2022-09-18T17:42:05.437Z,12.76
2022-09-18T17:45:09.386Z,12.78
2022-09-18T17:48:12.315Z,12.71
2022-09-18T17:51:18.669Z,12.62
2022-09-18T17:54:21.396Z,12.60
2022-09-18T17:57:24.184Z,12.57
2022-09-18T18:00:27.176Z,12.56
2022-09-18T18:03:30.098Z,12.49
2022-09-18T18:06:34.608Z,12.41
2022-09-18T18:09:38.009Z,12.41
2022-09-18T18:12:41.028Z,12.35
2022-09-18T18:15:43.737Z,12.38
2022-09-18T18:18:46.440Z,12.26
2022-09-18T18:21:50.568Z,12.28
2022-09-18T18:24:53.224Z,12.24
2022-09-18T18:27:56.170Z,12.02
2022-09-18T18:31:03.035Z,11.96
2022-09-18T18:34:05.861Z,11.90
2022-09-18T18:37:09.883Z,11.85
2022-09-18T18:40:13.203Z,11.93
2022-09-18T18:43:15.906Z,11.84
2022-09-18T18:46:18.645Z,11.64
2022-09-18T18:49:21.801Z,11.62
2022-09-18T18:52:26.353Z,11.58
2022-09-18T18:55:29.078Z,11.60
2022-09-18T18:58:32.644Z,11.56
2022-09-18T19:01:35.757Z,11.60
2022-09-18T19:04:40.472Z,11.65
2022-09-18T19:07:44.619Z,11.68
2022-09-18T19:10:56.475Z,11.61
2022-09-18T19:14:00.153Z,11.68
2022-09-18T19:17:03.024Z,11.74
2022-09-18T19:20:06.446Z,11.80
2022-09-18T19:23:13.272Z,11.84
2022-09-18T19:26:16.013Z,11.73
2022-09-18T19:29:22.008Z,11.72
2022-09-18T19:32:24.846Z,11.71
2022-09-18T19:35:27.534Z,11.71
2022-09-18T19:38:35.200Z,11.69
2022-09-18T19:41:42.048Z,11.70
2022-09-18T19:44:48.796Z,11.68
2022-09-18T19:47:52.083Z,11.73
2022-09-18T19:50:55.721Z,11.69
2022-09-18T19:53:59.829Z,11.74
2022-09-18T19:57:03.008Z,11.67
2022-09-18T20:00:06.633Z,11.58
2022-09-18T20:03:10.669Z,11.58
2022-09-18T20:06:13.618Z,11.58
2022-09-18T20:09:17.786Z,11.77
2022-09-18T20:12:20.722Z,11.39
2022-09-18T20:15:23.932Z,10.82
2022-09-18T20:18:26.680Z,10.48
2022-09-18T20:21:29.841Z,10.14
2022-09-18T20:24:34.374Z,9.97
2022-09-18T20:27:39.391Z,9.72
2022-09-18T20:30:42.076Z,9.60
2022-09-18T20:33:45.511Z,9.66
2022-09-18T20:36:49.526Z,9.54
2022-09-18T20:39:54.369Z,9.60
2022-09-18T20:42:57.072Z,9.65
2022-09-18T20:46:01.060Z,9.76
2022-09-18T20:49:03.852Z,9.80
2022-09-18T20:52:10.316Z,9.89
2022-09-18T20:55:18.281Z,9.98
2022-09-18T20:58:21.554Z,10.10
2022-09-18T21:01:26.418Z,10.17
2022-09-18T21:04:29.748Z,10.27
2022-09-18T21:07:33.177Z,10.21
2022-09-18T21:10:46.958Z,10.22
2022-09-18T21:13:53.493Z,10.24
2022-09-18T21:16:56.750Z,10.25
2022-09-18T21:19:59.422Z,10.26
2022-09-18T21:23:20.284Z,10.24
2022-09-18T21:26:25.799Z,10.23
2022-09-18T21:29:30.096Z,10.25
2022-09-18T21:32:32.738Z,10.24
2022-09-18T21:35:35.637Z,10.25
2022-09-18T21:38:40.128Z,10.12
2022-09-18T21:41:46.508Z,10.22
2022-09-18T21:44:49.909Z,10.22
2022-09-18T21:47:52.722Z,10.19
2022-09-18T21:50:55.754Z,10.20
2022-09-18T21:53:59.073Z,10.23
2022-09-18T21:57:03.738Z,10.22
2022-09-18T22:00:09.043Z,10.16
2022-09-18T22:03:12.543Z,10.13
2022-09-18T22:06:15.207Z,9.85
2022-09-18T22:09:20.541Z,9.75
2022-09-18T22:12:25.090Z,9.68
2022-09-18T22:15:27.750Z,9.58
2022-09-18T22:18:30.865Z,9.45
2022-09-18T22:21:35.856Z,9.33
2022-09-18T22:24:38.965Z,9.25
2022-09-18T22:27:43.727Z,9.16
2022-09-18T22:30:46.853Z,9.10
2022-09-18T22:33:53.565Z,9.01
2022-09-18T22:36:57.415Z,9.03
2022-09-18T22:40:00.301Z,8.97
2022-09-18T22:43:04.771Z,8.92
2022-09-18T22:46:10.347Z,8.87
2022-09-18T22:49:14.856Z,8.78
2022-09-18T22:52:17.665Z,8.73
2022-09-18T22:55:20.397Z,8.56
2022-09-18T22:58:25.113Z,8.60
2022-09-18T23:01:32.274Z,8.56
2022-09-18T23:04:37.148Z,8.50
2022-09-18T23:07:39.925Z,8.51
2022-09-18T23:10:42.733Z,8.46
2022-09-18T23:13:51.379Z,8.43
2022-09-18T23:16:55.534Z,8.41
2022-09-18T23:19:58.229Z,8.37
2022-09-18T23:23:01.449Z,8.37
2022-09-18T23:26:08.981Z,8.38
2022-09-18T23:29:15.156Z,8.34
2022-09-18T23:32:18.645Z,8.43
2022-09-18T23:35:21.474Z,8.48
2022-09-18T23:38:24.363Z,8.57
2022-09-18T23:41:29.702Z,8.63
2022-09-18T23:44:34.831Z,8.66
2022-09-18T23:47:38.151Z,8.63
2022-09-18T23:50:43.587Z,8.70
2022-09-18T23:53:46.278Z,8.77
2022-09-18T23:56:49.987Z,8.82
2022-09-18T23:59:54.122Z,8.88
